sensor_id;sensor_type;location;lat;lon;timestamp;pressure;altitude;pressure_sealevel;temperature;humidity
61554;BME280;47425;51.976;5.326;2023-03-01T00:02:00;103031.44;;;3.76;44.92
61554;BME280;47425;51.976;5.326;2023-03-01T00:04:33;103032.72;;;3.66;44.46
61554;BME280;47425;51.976;5.326;2023-03-01T00:07:07;103029.72;;;3.57;44.96
61554;BME280;47425;51.976;5.326;2023-03-01T00:09:37;103032.19;;;3.54;44.66
61554;BME280;47425;51.976;5.326;2023-03-01T00:12:05;103032.59;;;3.44;45.21
61554;BME280;47425;51.976;5.326;2023-03-01T00:14:35;103034.13;;;3.39;45.40
61554;BME280;47425;51.976;5.326;2023-03-01T00:17:03;103037.97;;;3.29;44.95
61554;BME280;47425;51.976;5.326;2023-03-01T00:19:44;103036.63;;;3.17;44.88
61554;BME280;47425;51.976;5.326;2023-03-01T00:22:11;103030.47;;;3.15;45.48
61554;BME280;47425;51.976;5.326;2023-03-01T00:25:12;103028.53;;;3.29;45.25
61554;BME280;47425;51.976;5.326;2023-03-01T00:27:46;103030.75;;;3.22;45.07
61554;BME280;47425;51.976;5.326;2023-03-01T00:30:33;103033.41;;;3.23;45.16
61554;BME280;47425;51.976;5.326;2023-03-01T00:33:09;103020.41;;;3.22;45.28
61554;BME280;47425;51.976;5.326;2023-03-01T00:35:37;103033.91;;;3.34;45.48
61554;BME280;47425;51.976;5.326;2023-03-01T00:38:26;103025.56;;;3.61;45.67
61554;BME280;47425;51.976;5.326;2023-03-01T00:40:55;103028.63;;;3.72;45.25
61554;BME280;47425;51.976;5.326;2023-03-01T00:43:44;103017.34;;;3.69;45.15
61554;BME280;47425;51.976;5.326;2023-03-01T00:46:40;103025.91;;;3.68;45.24
61554;BME280;47425;51.976;5.326;2023-03-01T00:49:11;103020.72;;;3.68;45.10
61554;BME280;47425;51.976;5.326;2023-03-01T00:51:47;103030.06;;;3.65;45.11
61554;BME280;47425;51.976;5.326;2023-03-01T00:54:18;103022.78;;;3.56;44.86
61554;BME280;47425;51.976;5.326;2023-03-01T00:56:56;103024.69;;;3.60;44.92
61554;BME280;47425;51.976;5.326;2023-03-01T00:59:23;103022.75;;;3.55;44.96
61554;BME280;47425;51.976;5.326;2023-03-01T01:01:52;103017.69;;;3.58;45.19
61554;BME280;47425;51.976;5.326;2023-03-01T01:07:13;103017.84;;;3.82;45.41
61554;BME280;47425;51.976;5.326;2023-03-01T01:10:16;103004.88;;;3.82;45.12
61554;BME280;47425;51.976;5.326;2023-03-01T01:12:44;103004.31;;;3.89;45.82
61554;BME280;47425;51.976;5.326;2023-03-01T01:15:24;103003.69;;;3.95;45.09
61554;BME280;47425;51.976;5.326;2023-03-01T01:18:22;103008.06;;;3.75;44.94
61554;BME280;47425;51.976;5.326;2023-03-01T01:20:50;103008.94;;;3.56;44.86
61554;BME280;47425;51.976;5.326;2023-03-01T01:23:28;102993.75;;;3.44;45.67
61554;BME280;47425;51.976;5.326;2023-03-01T01:26:11;102986.47;;;3.35;46.04
61554;BME280;47425;51.976;5.326;2023-03-01T01:28:49;102982.38;;;3.21;45.80
61554;BME280;47425;51.976;5.326;2023-03-01T01:31:24;102984.16;;;3.22;46.39
61554;BME280;47425;51.976;5.326;2023-03-01T01:33:58;102975.56;;;3.23;45.92
61554;BME280;47425;51.976;5.326;2023-03-01T01:36:34;102974.75;;;3.04;45.94
61554;BME280;47425;51.976;5.326;2023-03-01T01:39:10;102977.28;;;2.84;46.20
61554;BME280;47425;51.976;5.326;2023-03-01T01:41:42;102974.44;;;2.78;46.69
61554;BME280;47425;51.976;5.326;2023-03-01T01:46:50;102971.56;;;2.72;47.00
61554;BME280;47425;51.976;5.326;2023-03-01T01:49:44;102967.88;;;2.67;47.72
61554;BME280;47425;51.976;5.326;2023-03-01T01:52:14;102965.97;;;2.63;47.78
61554;BME280;47425;51.976;5.326;2023-03-01T01:54:44;102963.00;;;2.55;47.78
61554;BME280;47425;51.976;5.326;2023-03-01T01:57:14;102963.25;;;2.42;48.60
61554;BME280;47425;51.976;5.326;2023-03-01T01:59:44;102964.56;;;2.33;48.66
61554;BME280;47425;51.976;5.326;2023-03-01T02:02:12;102955.31;;;2.19;49.07
61554;BME280;47425;51.976;5.326;2023-03-01T02:04:39;102958.09;;;2.24;49.35
61554;BME280;47425;51.976;5.326;2023-03-01T02:07:06;102959.88;;;2.25;49.63
61554;BME280;47425;51.976;5.326;2023-03-01T02:09:36;102954.56;;;2.22;49.37
61554;BME280;47425;51.976;5.326;2023-03-01T02:12:04;102948.25;;;2.34;49.52
61554;BME280;47425;51.976;5.326;2023-03-01T02:14:32;102950.84;;;2.34;50.15
61554;BME280;47425;51.976;5.326;2023-03-01T02:16:59;102952.91;;;2.42;50.36
61554;BME280;47425;51.976;5.326;2023-03-01T02:19:31;102952.75;;;2.39;49.95
61554;BME280;47425;51.976;5.326;2023-03-01T02:22:06;102951.50;;;2.30;50.24
61554;BME280;47425;51.976;5.326;2023-03-01T02:24:39;102951.81;;;2.18;50.91
61554;BME280;47425;51.976;5.326;2023-03-01T02:27:13;102955.81;;;2.30;50.81
61554;BME280;47425;51.976;5.326;2023-03-01T02:29:42;102943.31;;;2.39;50.85
61554;BME280;47425;51.976;5.326;2023-03-01T02:32:09;102949.22;;;2.37;50.90
61554;BME280;47425;51.976;5.326;2023-03-01T02:34:37;102941.03;;;2.27;51.29
61554;BME280;47425;51.976;5.326;2023-03-01T02:37:07;102941.53;;;2.38;51.00
61554;BME280;47425;51.976;5.326;2023-03-01T02:39:39;102941.75;;;2.43;51.00
61554;BME280;47425;51.976;5.326;2023-03-01T02:42:07;102939.84;;;2.39;50.96
61554;BME280;47425;51.976;5.326;2023-03-01T02:44:37;102947.22;;;2.31;51.31
61554;BME280;47425;51.976;5.326;2023-03-01T02:47:05;102938.28;;;2.42;51.27
61554;BME280;47425;51.976;5.326;2023-03-01T02:49:32;102940.88;;;2.42;50.87
61554;BME280;47425;51.976;5.326;2023-03-01T02:52:06;102942.28;;;2.35;50.96
61554;BME280;47425;51.976;5.326;2023-03-01T02:54:38;102927.44;;;2.31;51.10
61554;BME280;47425;51.976;5.326;2023-03-01T02:57:06;102936.50;;;2.41;51.46
61554;BME280;47425;51.976;5.326;2023-03-01T02:59:34;102931.84;;;2.52;51.20
61554;BME280;47425;51.976;5.326;2023-03-01T03:02:07;102923.41;;;2.56;50.95
61554;BME280;47425;51.976;5.326;2023-03-01T03:04:34;102924.06;;;2.52;51.11
61554;BME280;47425;51.976;5.326;2023-03-01T03:07:02;102920.94;;;2.40;51.11
61554;BME280;47425;51.976;5.326;2023-03-01T03:09:28;102925.97;;;2.37;51.37
61554;BME280;47425;51.976;5.326;2023-03-01T03:11:55;102924.84;;;2.31;51.31
61554;BME280;47425;51.976;5.326;2023-03-01T03:14:22;102936.47;;;2.22;51.64
61554;BME280;47425;51.976;5.326;2023-03-01T03:16:49;102931.66;;;2.11;52.30
61554;BME280;47425;51.976;5.326;2023-03-01T03:19:18;102931.81;;;1.96;52.58
61554;BME280;47425;51.976;5.326;2023-03-01T03:21:45;102929.63;;;1.88;52.85
61554;BME280;47425;51.976;5.326;2023-03-01T03:24:11;102923.06;;;1.76;53.34
61554;BME280;47425;51.976;5.326;2023-03-01T03:26:39;102922.47;;;1.64;53.62
61554;BME280;47425;51.976;5.326;2023-03-01T03:29:05;102919.06;;;1.65;54.15
61554;BME280;47425;51.976;5.326;2023-03-01T03:31:32;102909.69;;;1.67;54.17
61554;BME280;47425;51.976;5.326;2023-03-01T03:33:59;102917.31;;;1.64;54.53
61554;BME280;47425;51.976;5.326;2023-03-01T03:36:27;102918.84;;;1.78;54.87
61554;BME280;47425;51.976;5.326;2023-03-01T03:38:54;102915.31;;;1.94;54.75
61554;BME280;47425;51.976;5.326;2023-03-01T03:41:20;102908.69;;;1.99;54.39
61554;BME280;47425;51.976;5.326;2023-03-01T03:43:48;102918.28;;;2.02;54.50
61554;BME280;47425;51.976;5.326;2023-03-01T03:46:14;102916.56;;;2.03;54.01
61554;BME280;47425;51.976;5.326;2023-03-01T03:48:42;102916.66;;;2.04;54.03
61554;BME280;47425;51.976;5.326;2023-03-01T03:51:10;102907.22;;;2.05;53.65
61554;BME280;47425;51.976;5.326;2023-03-01T03:53:38;102909.22;;;1.92;54.46
61554;BME280;47425;51.976;5.326;2023-03-01T03:56:06;102900.56;;;1.92;54.14
61554;BME280;47425;51.976;5.326;2023-03-01T03:58:32;102902.34;;;1.93;54.36
61554;BME280;47425;51.976;5.326;2023-03-01T04:01:00;102902.41;;;2.12;53.91
61554;BME280;47425;51.976;5.326;2023-03-01T04:03:27;102896.34;;;2.30;53.61
61554;BME280;47425;51.976;5.326;2023-03-01T04:05:54;102897.53;;;2.37;53.06
61554;BME280;47425;51.976;5.326;2023-03-01T04:08:22;102890.00;;;2.23;52.89
61554;BME280;47425;51.976;5.326;2023-03-01T04:10:52;102899.09;;;2.15;52.99
61554;BME280;47425;51.976;5.326;2023-03-01T04:13:19;102895.16;;;2.05;53.09
61554;BME280;47425;51.976;5.326;2023-03-01T04:15:48;102894.06;;;2.00;52.98
61554;BME280;47425;51.976;5.326;2023-03-01T04:18:17;102896.13;;;1.89;53.18
61554;BME280;47425;51.976;5.326;2023-03-01T04:20:44;102894.06;;;1.82;53.20
61554;BME280;47425;51.976;5.326;2023-03-01T04:23:11;102901.06;;;1.84;53.50
61554;BME280;47425;51.976;5.326;2023-03-01T04:25:42;102900.63;;;1.93;53.06
61554;BME280;47425;51.976;5.326;2023-03-01T04:28:13;102899.00;;;1.95;52.94
61554;BME280;47425;51.976;5.326;2023-03-01T04:30:40;102900.41;;;2.07;52.91
61554;BME280;47425;51.976;5.326;2023-03-01T04:33:07;102899.16;;;2.16;52.89
61554;BME280;47425;51.976;5.326;2023-03-01T04:35:35;102895.66;;;2.16;52.18
61554;BME280;47425;51.976;5.326;2023-03-01T04:38:02;102903.44;;;2.16;52.13
61554;BME280;47425;51.976;5.326;2023-03-01T04:40:28;102900.25;;;2.04;51.88
61554;BME280;47425;51.976;5.326;2023-03-01T04:42:54;102905.56;;;2.07;52.37
61554;BME280;47425;51.976;5.326;2023-03-01T04:45:23;102892.59;;;2.23;52.36
61554;BME280;47425;51.976;5.326;2023-03-01T04:47:50;102887.00;;;2.33;52.20
61554;BME280;47425;51.976;5.326;2023-03-01T04:50:17;102882.69;;;2.52;51.88
61554;BME280;47425;51.976;5.326;2023-03-01T04:52:46;102885.69;;;2.61;51.22
61554;BME280;47425;51.976;5.326;2023-03-01T04:55:13;102884.97;;;2.64;50.96
61554;BME280;47425;51.976;5.326;2023-03-01T04:57:39;102878.28;;;2.69;50.81
61554;BME280;47425;51.976;5.326;2023-03-01T05:00:07;102880.94;;;2.71;50.06
61554;BME280;47425;51.976;5.326;2023-03-01T05:02:48;102880.53;;;2.61;49.81
61554;BME280;47425;51.976;5.326;2023-03-01T05:05:20;102874.41;;;2.59;50.14
61554;BME280;47425;51.976;5.326;2023-03-01T05:07:52;102876.66;;;2.51;49.98
61554;BME280;47425;51.976;5.326;2023-03-01T05:10:19;102865.81;;;2.60;50.43
61554;BME280;47425;51.976;5.326;2023-03-01T05:12:46;102858.88;;;2.79;50.55
61554;BME280;47425;51.976;5.326;2023-03-01T05:15:13;102858.41;;;2.88;49.57
61554;BME280;47425;51.976;5.326;2023-03-01T05:17:39;102849.97;;;2.92;49.58
61554;BME280;47425;51.976;5.326;2023-03-01T05:20:08;102842.22;;;2.92;48.92
61554;BME280;47425;51.976;5.326;2023-03-01T05:22:36;102854.63;;;2.79;49.02
61554;BME280;47425;51.976;5.326;2023-03-01T05:25:03;102837.31;;;2.78;49.34
61554;BME280;47425;51.976;5.326;2023-03-01T05:27:30;102833.91;;;2.79;49.63
61554;BME280;47425;51.976;5.326;2023-03-01T05:29:58;102827.38;;;2.88;49.31
61554;BME280;47425;51.976;5.326;2023-03-01T05:32:24;102827.56;;;2.92;48.97
61554;BME280;47425;51.976;5.326;2023-03-01T05:34:50;102825.00;;;2.73;48.35
61554;BME280;47425;51.976;5.326;2023-03-01T05:37:21;102816.41;;;2.54;48.72
61554;BME280;47425;51.976;5.326;2023-03-01T05:39:49;102818.94;;;2.53;48.68
61554;BME280;47425;51.976;5.326;2023-03-01T05:42:16;102813.34;;;2.43;48.69
61554;BME280;47425;51.976;5.326;2023-03-01T05:44:43;102808.44;;;2.30;48.68
61554;BME280;47425;51.976;5.326;2023-03-01T05:47:10;102805.94;;;2.13;49.30
61554;BME280;47425;51.976;5.326;2023-03-01T05:49:37;102807.03;;;2.18;49.68
61554;BME280;47425;51.976;5.326;2023-03-01T05:52:03;102807.22;;;2.22;49.35
61554;BME280;47425;51.976;5.326;2023-03-01T05:54:31;102806.53;;;2.26;49.54
61554;BME280;47425;51.976;5.326;2023-03-01T05:56:59;102804.75;;;2.25;48.88
61554;BME280;47425;51.976;5.326;2023-03-01T05:59:25;102801.53;;;2.11;48.90
61554;BME280;47425;51.976;5.326;2023-03-01T06:01:52;102812.56;;;1.89;49.23
61554;BME280;47425;51.976;5.326;2023-03-01T06:04:18;102805.84;;;1.74;49.66
61554;BME280;47425;51.976;5.326;2023-03-01T06:06:47;102809.69;;;1.64;50.11
61554;BME280;47425;51.976;5.326;2023-03-01T06:09:13;102811.09;;;1.76;50.43
61554;BME280;47425;51.976;5.326;2023-03-01T06:11:43;102807.25;;;1.67;49.93
61554;BME280;47425;51.976;5.326;2023-03-01T06:14:10;102810.31;;;1.59;50.33
61554;BME280;47425;51.976;5.326;2023-03-01T06:16:39;102803.78;;;1.49;50.24
61554;BME280;47425;51.976;5.326;2023-03-01T06:19:06;102804.09;;;1.37;50.54
61554;BME280;47425;51.976;5.326;2023-03-01T06:21:32;102810.41;;;1.26;50.58
61554;BME280;47425;51.976;5.326;2023-03-01T06:24:00;102815.03;;;1.15;50.74
61554;BME280;47425;51.976;5.326;2023-03-01T06:29:09;102817.94;;;1.05;51.68
61554;BME280;47425;51.976;5.326;2023-03-01T06:31:35;102813.97;;;1.11;51.34
61554;BME280;47425;51.976;5.326;2023-03-01T06:34:03;102821.31;;;1.20;51.19
61554;BME280;47425;51.976;5.326;2023-03-01T06:36:29;102812.25;;;1.28;51.25
61554;BME280;47425;51.976;5.326;2023-03-01T06:38:56;102813.75;;;1.41;51.15
61554;BME280;47425;51.976;5.326;2023-03-01T06:41:23;102810.72;;;1.50;50.76
61554;BME280;47425;51.976;5.326;2023-03-01T06:46:47;102814.50;;;1.57;50.48
61554;BME280;47425;51.976;5.326;2023-03-01T06:49:13;102817.06;;;1.57;50.27
61554;BME280;47425;51.976;5.326;2023-03-01T06:51:42;102812.19;;;1.45;50.44
61554;BME280;47425;51.976;5.326;2023-03-01T06:54:08;102809.41;;;1.40;50.98
61554;BME280;47425;51.976;5.326;2023-03-01T06:56:35;102815.22;;;1.54;50.84
61554;BME280;47425;51.976;5.326;2023-03-01T06:59:02;102813.59;;;1.74;50.88
61554;BME280;47425;51.976;5.326;2023-03-01T07:01:30;102812.78;;;1.93;50.32
61554;BME280;47425;51.976;5.326;2023-03-01T07:03:58;102815.28;;;2.10;50.34
61554;BME280;47425;51.976;5.326;2023-03-01T07:06:24;102817.31;;;2.17;50.14
61554;BME280;47425;51.976;5.326;2023-03-01T07:08:51;102817.50;;;2.02;49.70
61554;BME280;47425;51.976;5.326;2023-03-01T07:11:18;102817.06;;;1.93;50.17
61554;BME280;47425;51.976;5.326;2023-03-01T07:13:45;102819.94;;;1.99;50.07
61554;BME280;47425;51.976;5.326;2023-03-01T07:16:11;102818.13;;;2.16;50.65
61554;BME280;47425;51.976;5.326;2023-03-01T07:18:40;102814.19;;;2.24;49.82
61554;BME280;47425;51.976;5.326;2023-03-01T07:21:08;102810.81;;;2.25;50.02
61554;BME280;47425;51.976;5.326;2023-03-01T07:23:35;102814.63;;;2.33;50.13
61554;BME280;47425;51.976;5.326;2023-03-01T07:26:01;102821.97;;;2.44;49.71
61554;BME280;47425;51.976;5.326;2023-03-01T07:28:29;102818.53;;;2.43;49.42
61554;BME280;47425;51.976;5.326;2023-03-01T07:31:00;102822.94;;;2.46;49.42
61554;BME280;47425;51.976;5.326;2023-03-01T07:33:26;102825.44;;;2.44;49.35
61554;BME280;47425;51.976;5.326;2023-03-01T07:35:55;102824.28;;;2.38;49.34
61554;BME280;47425;51.976;5.326;2023-03-01T07:38:24;102830.69;;;2.26;49.54
61554;BME280;47425;51.976;5.326;2023-03-01T07:40:51;102821.69;;;2.18;49.76
61554;BME280;47425;51.976;5.326;2023-03-01T07:43:17;102826.03;;;2.19;49.69
61554;BME280;47425;51.976;5.326;2023-03-01T07:45:45;102827.66;;;2.17;50.17
61554;BME280;47425;51.976;5.326;2023-03-01T07:48:12;102828.41;;;2.14;50.54
61554;BME280;47425;51.976;5.326;2023-03-01T07:50:38;102833.25;;;2.26;50.97
61554;BME280;47425;51.976;5.326;2023-03-01T07:53:05;102840.75;;;2.40;50.93
61554;BME280;47425;51.976;5.326;2023-03-01T07:55:34;102838.66;;;2.50;51.04
61554;BME280;47425;51.976;5.326;2023-03-01T07:58:00;102834.28;;;2.49;50.16
61554;BME280;47425;51.976;5.326;2023-03-01T08:00:26;102831.44;;;2.43;50.73
61554;BME280;47425;51.976;5.326;2023-03-01T08:02:58;102827.25;;;2.65;51.26
61554;BME280;47425;51.976;5.326;2023-03-01T08:05:25;102829.88;;;2.66;51.03
61554;BME280;47425;51.976;5.326;2023-03-01T08:07:52;102846.03;;;2.61;50.67
61554;BME280;47425;51.976;5.326;2023-03-01T08:10:18;102843.22;;;2.76;50.91
61554;BME280;47425;51.976;5.326;2023-03-01T08:12:47;102842.94;;;2.69;50.52
61554;BME280;47425;51.976;5.326;2023-03-01T08:15:14;102846.84;;;2.79;51.41
61554;BME280;47425;51.976;5.326;2023-03-01T08:17:40;102845.19;;;3.01;50.85
61554;BME280;47425;51.976;5.326;2023-03-01T08:20:07;102842.50;;;3.19;51.05
61554;BME280;47425;51.976;5.326;2023-03-01T08:22:38;102836.53;;;3.41;50.19
61554;BME280;47425;51.976;5.326;2023-03-01T08:25:05;102837.84;;;3.52;49.81
61554;BME280;47425;51.976;5.326;2023-03-01T08:27:31;102841.25;;;3.73;49.87
61554;BME280;47425;51.976;5.326;2023-03-01T08:29:59;102832.94;;;4.04;49.65
61554;BME280;47425;51.976;5.326;2023-03-01T08:32:26;102835.78;;;4.33;49.54
61554;BME280;47425;51.976;5.326;2023-03-01T08:34:53;102832.72;;;4.43;49.35
61554;BME280;47425;51.976;5.326;2023-03-01T08:37:19;102841.84;;;4.33;47.65
61554;BME280;47425;51.976;5.326;2023-03-01T08:39:47;102834.97;;;4.11;48.61
61554;BME280;47425;51.976;5.326;2023-03-01T08:42:13;102832.53;;;3.93;48.22
61554;BME280;47425;51.976;5.326;2023-03-01T08:44:40;102823.06;;;3.94;48.48
61554;BME280;47425;51.976;5.326;2023-03-01T08:47:09;102818.09;;;4.00;48.29
61554;BME280;47425;51.976;5.326;2023-03-01T08:49:35;102816.22;;;4.18;48.71
61554;BME280;47425;51.976;5.326;2023-03-01T08:52:02;102823.81;;;4.36;48.14
61554;BME280;47425;51.976;5.326;2023-03-01T08:54:28;102816.50;;;4.26;47.64
61554;BME280;47425;51.976;5.326;2023-03-01T08:56:56;102815.28;;;4.16;47.04
61554;BME280;47425;51.976;5.326;2023-03-01T08:59:24;102812.25;;;4.28;48.29
61554;BME280;47425;51.976;5.326;2023-03-01T09:01:51;102818.19;;;4.48;47.47
61554;BME280;47425;51.976;5.326;2023-03-01T09:04:19;102812.53;;;4.84;47.83
61554;BME280;47425;51.976;5.326;2023-03-01T09:06:47;102814.97;;;5.04;47.11
61554;BME280;47425;51.976;5.326;2023-03-01T09:09:14;102800.53;;;5.12;46.79
61554;BME280;47425;51.976;5.326;2023-03-01T09:11:42;102807.72;;;4.95;46.44
61554;BME280;47425;51.976;5.326;2023-03-01T09:16:52;102806.13;;;4.99;46.65
61554;BME280;47425;51.976;5.326;2023-03-01T09:19:19;102792.94;;;5.18;45.52
61554;BME280;47425;51.976;5.326;2023-03-01T09:21:46;102798.25;;;4.96;45.86
61554;BME280;47425;51.976;5.326;2023-03-01T09:24:19;102783.91;;;5.07;46.93
61554;BME280;47425;51.976;5.326;2023-03-01T09:26:46;102780.84;;;5.46;46.02
61554;BME280;47425;51.976;5.326;2023-03-01T09:29:12;102775.06;;;5.28;45.39
61554;BME280;47425;51.976;5.326;2023-03-01T09:31:39;102777.16;;;5.67;47.60
61554;BME280;47425;51.976;5.326;2023-03-01T09:34:07;102769.19;;;5.90;45.74
61554;BME280;47425;51.976;5.326;2023-03-01T09:36:35;102768.09;;;6.10;45.90
61554;BME280;47425;51.976;5.326;2023-03-01T09:39:02;102762.38;;;5.95;44.37
61554;BME280;47425;51.976;5.326;2023-03-01T09:41:38;102762.41;;;5.66;44.40
61554;BME280;47425;51.976;5.326;2023-03-01T09:44:10;102759.75;;;5.64;44.06
61554;BME280;47425;51.976;5.326;2023-03-01T09:46:43;102762.66;;;5.74;44.66
61554;BME280;47425;51.976;5.326;2023-03-01T09:49:10;102761.84;;;5.76;43.65
61554;BME280;47425;51.976;5.326;2023-03-01T09:51:41;102764.69;;;6.13;45.51
61554;BME280;47425;51.976;5.326;2023-03-01T09:54:08;102761.69;;;6.93;45.18
61554;BME280;47425;51.976;5.326;2023-03-01T09:56:36;102757.69;;;7.44;44.53
61554;BME280;47425;51.976;5.326;2023-03-01T09:59:07;102759.28;;;7.76;43.47
61554;BME280;47425;51.976;5.326;2023-03-01T10:01:40;102758.06;;;7.61;41.32
61554;BME280;47425;51.976;5.326;2023-03-01T10:04:12;102761.53;;;7.23;40.65
61554;BME280;47425;51.976;5.326;2023-03-01T10:06:51;102759.03;;;6.92;40.86
61554;BME280;47425;51.976;5.326;2023-03-01T10:09:25;102760.84;;;6.61;41.17
61554;BME280;47425;51.976;5.326;2023-03-01T10:11:56;102762.94;;;6.42;40.94
61554;BME280;47425;51.976;5.326;2023-03-01T10:14:29;102759.63;;;6.49;42.78
61554;BME280;47425;51.976;5.326;2023-03-01T10:16:58;102757.91;;;7.17;43.38
61554;BME280;47425;51.976;5.326;2023-03-01T10:19:29;102755.63;;;7.29;41.61
61554;BME280;47425;51.976;5.326;2023-03-01T10:22:00;102762.94;;;7.46;41.22
61554;BME280;47425;51.976;5.326;2023-03-01T10:24:31;102754.56;;;6.87;40.33
61554;BME280;47425;51.976;5.326;2023-03-01T10:26:58;102757.06;;;6.83;41.08
61554;BME280;47425;51.976;5.326;2023-03-01T10:29:29;102751.34;;;6.64;42.45
61554;BME280;47425;51.976;5.326;2023-03-01T10:31:58;102744.03;;;7.18;41.36
61554;BME280;47425;51.976;5.326;2023-03-01T10:34:27;102747.88;;;7.32;41.79
61554;BME280;47425;51.976;5.326;2023-03-01T10:36:57;102750.56;;;7.37;39.47
61554;BME280;47425;51.976;5.326;2023-03-01T10:39:25;102752.34;;;7.38;41.88
61554;BME280;47425;51.976;5.326;2023-03-01T10:41:56;102742.00;;;7.81;42.15
61554;BME280;47425;51.976;5.326;2023-03-01T10:44:43;102729.53;;;8.09;39.70
61554;BME280;47425;51.976;5.326;2023-03-01T10:47:15;102730.75;;;7.83;38.58
61554;BME280;47425;51.976;5.326;2023-03-01T10:49:53;102723.00;;;7.88;40.48
61554;BME280;47425;51.976;5.326;2023-03-01T10:52:21;102721.78;;;8.12;38.77
61554;BME280;47425;51.976;5.326;2023-03-01T10:54:54;102710.47;;;7.70;38.12
61554;BME280;47425;51.976;5.326;2023-03-01T10:57:27;102711.59;;;7.42;37.98
61554;BME280;47425;51.976;5.326;2023-03-01T11:03:16;102696.75;;;7.39;39.29
61554;BME280;47425;51.976;5.326;2023-03-01T11:05:57;102699.38;;;7.39;39.13
61554;BME280;47425;51.976;5.326;2023-03-01T11:08:29;102689.84;;;7.41;38.34
61554;BME280;47425;51.976;5.326;2023-03-01T11:11:05;102688.81;;;7.34;37.84
61554;BME280;47425;51.976;5.326;2023-03-01T11:13:33;102689.34;;;7.58;38.42
61554;BME280;47425;51.976;5.326;2023-03-01T11:16:01;102681.41;;;7.53;37.28
61554;BME280;47425;51.976;5.326;2023-03-01T11:18:29;102687.16;;;7.38;37.66
61554;BME280;47425;51.976;5.326;2023-03-01T11:20:56;102678.44;;;7.36;37.54
61554;BME280;47425;51.976;5.326;2023-03-01T11:23:26;102677.81;;;7.48;37.86
61554;BME280;47425;51.976;5.326;2023-03-01T11:25:54;102678.06;;;7.59;36.77
61554;BME280;47425;51.976;5.326;2023-03-01T11:31:07;102663.94;;;7.49;37.17
61554;BME280;47425;51.976;5.326;2023-03-01T11:33:39;102666.31;;;7.78;37.95
61554;BME280;47425;51.976;5.326;2023-03-01T11:36:13;102660.50;;;7.91;36.35
61554;BME280;47425;51.976;5.326;2023-03-01T11:38:43;102653.50;;;7.90;35.86
61554;BME280;47425;51.976;5.326;2023-03-01T11:41:12;102659.81;;;8.01;38.12
61554;BME280;47425;51.976;5.326;2023-03-01T11:43:42;102659.97;;;8.09;35.56
61554;BME280;47425;51.976;5.326;2023-03-01T11:49:32;102673.31;;;7.80;36.73
61554;BME280;47425;51.976;5.326;2023-03-01T11:52:06;102667.81;;;7.68;36.27
61554;BME280;47425;51.976;5.326;2023-03-01T11:54:42;102666.34;;;7.79;35.61
61554;BME280;47425;51.976;5.326;2023-03-01T11:57:15;102662.91;;;7.82;35.66
61554;BME280;47425;51.976;5.326;2023-03-01T11:59:56;102655.22;;;7.89;35.46
61554;BME280;47425;51.976;5.326;2023-03-01T12:02:40;102655.81;;;7.76;35.05
61554;BME280;47425;51.976;5.326;2023-03-01T12:05:22;102652.53;;;7.85;36.01
61554;BME280;47425;51.976;5.326;2023-03-01T12:07:53;102641.41;;;7.94;35.03
61554;BME280;47425;51.976;5.326;2023-03-01T12:10:25;102647.38;;;7.89;35.54
61554;BME280;47425;51.976;5.326;2023-03-01T12:12:58;102646.72;;;7.98;34.99
61554;BME280;47425;51.976;5.326;2023-03-01T12:15:34;102649.06;;;7.84;35.38
61554;BME280;47425;51.976;5.326;2023-03-01T12:20:56;102645.03;;;8.00;34.55
61554;BME280;47425;51.976;5.326;2023-03-01T12:23:31;102631.19;;;8.04;34.98
61554;BME280;47425;51.976;5.326;2023-03-01T12:26:05;102623.75;;;8.26;35.99
61554;BME280;47425;51.976;5.326;2023-03-01T12:28:44;102630.19;;;8.45;35.17
61554;BME280;47425;51.976;5.326;2023-03-01T12:31:36;102631.41;;;8.67;36.11
61554;BME280;47425;51.976;5.326;2023-03-01T12:34:09;102628.91;;;8.72;34.32
61554;BME280;47425;51.976;5.326;2023-03-01T12:36:46;102624.56;;;8.74;34.04
61554;BME280;47425;51.976;5.326;2023-03-01T12:39:19;102631.00;;;8.44;33.53
61554;BME280;47425;51.976;5.326;2023-03-01T12:41:53;102623.84;;;8.34;34.44
61554;BME280;47425;51.976;5.326;2023-03-01T12:44:30;102627.81;;;8.61;36.25
61554;BME280;47425;51.976;5.326;2023-03-01T12:47:05;102634.13;;;8.73;33.83
61554;BME280;47425;51.976;5.326;2023-03-01T12:49:36;102617.78;;;8.85;34.34
61554;BME280;47425;51.976;5.326;2023-03-01T12:52:08;102619.88;;;9.08;34.79
61554;BME280;47425;51.976;5.326;2023-03-01T12:54:36;102613.72;;;9.06;33.07
61554;BME280;47425;51.976;5.326;2023-03-01T12:57:02;102602.69;;;8.67;32.73
61554;BME280;47425;51.976;5.326;2023-03-01T12:59:34;102589.50;;;8.58;32.87
61554;BME280;47425;51.976;5.326;2023-03-01T13:02:07;102594.69;;;8.56;33.36
61554;BME280;47425;51.976;5.326;2023-03-01T13:05:00;102583.47;;;8.62;34.00
61554;BME280;47425;51.976;5.326;2023-03-01T13:07:34;102566.03;;;8.60;33.53
61554;BME280;47425;51.976;5.326;2023-03-01T13:10:19;102558.28;;;8.66;34.07
61554;BME280;47425;51.976;5.326;2023-03-01T13:12:52;102559.94;;;8.61;33.17
61554;BME280;47425;51.976;5.326;2023-03-01T13:15:27;102560.81;;;8.61;32.94
61554;BME280;47425;51.976;5.326;2023-03-01T13:17:55;102560.31;;;8.85;34.16
61554;BME280;47425;51.976;5.326;2023-03-01T13:20:24;102547.13;;;8.78;32.61
61554;BME280;47425;51.976;5.326;2023-03-01T13:23:01;102554.94;;;8.75;33.05
61554;BME280;47425;51.976;5.326;2023-03-01T13:25:29;102552.19;;;8.67;32.21
61554;BME280;47425;51.976;5.326;2023-03-01T13:30:42;102547.28;;;8.33;32.19
61554;BME280;47425;51.976;5.326;2023-03-01T13:35:56;102546.47;;;8.37;33.50
61554;BME280;47425;51.976;5.326;2023-03-01T13:41:09;102539.56;;;8.96;31.56
61554;BME280;47425;51.976;5.326;2023-03-01T13:43:36;102533.13;;;8.74;31.67
61554;BME280;47425;51.976;5.326;2023-03-01T13:46:08;102520.22;;;8.85;31.92
61554;BME280;47425;51.976;5.326;2023-03-01T13:48:37;102518.66;;;8.96;32.14
61554;BME280;47425;51.976;5.326;2023-03-01T13:51:04;102517.03;;;9.07;31.52